sensor_id;sensor_type;location;lat;lon;timestamp;pressure;altitude;pressure_sealevel;temperature;humidity
60015;BME280;45867;52.480;6.056;2023-11-21T00:00:20;100215.31;;;6.93;100.00
60015;BME280;45867;52.480;6.056;2023-11-21T00:02:49;100201.28;;;6.77;100.00
60015;BME280;45867;52.480;6.056;2023-11-21T00:05:16;100193.31;;;6.67;100.00
60015;BME280;45867;52.480;6.056;2023-11-21T00:07:43;100190.59;;;6.52;100.00
60015;BME280;45867;52.480;6.056;2023-11-21T00:10:12;100206.41;;;6.57;100.00
60015;BME280;45867;52.480;6.056;2023-11-21T00:12:39;100224.34;;;6.65;100.00
60015;BME280;45867;52.480;6.056;2023-11-21T00:15:06;100213.31;;;6.68;100.00
60015;BME280;45867;52.480;6.056;2023-11-21T00:17:37;100209.81;;;6.57;100.00
60015;BME280;45867;52.480;6.056;2023-11-21T00:20:05;100214.28;;;6.52;100.00
60015;BME280;45867;52.480;6.056;2023-11-21T00:22:34;100224.13;;;6.66;100.00
60015;BME280;45867;52.480;6.056;2023-11-21T00:25:01;100220.66;;;6.61;100.00
60015;BME280;45867;52.480;6.056;2023-11-21T00:27:28;100212.78;;;6.61;100.00
60015;BME280;45867;52.480;6.056;2023-11-21T00:29:55;100219.06;;;6.60;100.00
60015;BME280;45867;52.480;6.056;2023-11-21T00:32:24;100204.25;;;6.49;100.00
60015;BME280;45867;52.480;6.056;2023-11-21T00:34:51;100198.47;;;6.52;100.00
60015;BME280;45867;52.480;6.056;2023-11-21T00:37:17;100206.16;;;6.58;100.00
60015;BME280;45867;52.480;6.056;2023-11-21T00:39:46;100213.25;;;6.53;100.00
60015;BME280;45867;52.480;6.056;2023-11-21T00:42:12;100177.47;;;6.62;100.00
60015;BME280;45867;52.480;6.056;2023-11-21T00:44:41;100192.25;;;6.68;100.00
60015;BME280;45867;52.480;6.056;2023-11-21T00:47:10;100196.75;;;6.73;100.00
60015;BME280;45867;52.480;6.056;2023-11-21T00:49:37;100196.22;;;6.71;100.00
60015;BME280;45867;52.480;6.056;2023-11-21T00:52:06;100206.03;;;6.80;100.00
60015;BME280;45867;52.480;6.056;2023-11-21T00:54:36;100208.16;;;6.83;100.00
60015;BME280;45867;52.480;6.056;2023-11-21T00:57:02;100205.00;;;6.86;100.00
60015;BME280;45867;52.480;6.056;2023-11-21T00:59:29;100177.28;;;6.74;100.00
60015;BME280;45867;52.480;6.056;2023-11-21T01:01:56;100189.94;;;6.77;100.00
60015;BME280;45867;52.480;6.056;2023-11-21T01:04:24;100196.56;;;6.84;100.00
60015;BME280;45867;52.480;6.056;2023-11-21T01:06:51;100219.00;;;6.97;100.00
60015;BME280;45867;52.480;6.056;2023-11-21T01:09:17;100197.59;;;6.83;100.00
60015;BME280;45867;52.480;6.056;2023-11-21T01:11:44;100218.47;;;6.95;100.00
60015;BME280;45867;52.480;6.056;2023-11-21T01:14:16;100221.09;;;6.95;100.00
60015;BME280;45867;52.480;6.056;2023-11-21T01:16:43;100205.28;;;6.95;100.00
60015;BME280;45867;52.480;6.056;2023-11-21T01:19:09;100216.88;;;6.94;100.00
60015;BME280;45867;52.480;6.056;2023-11-21T01:21:38;100229.31;;;7.04;100.00
60015;BME280;45867;52.480;6.056;2023-11-21T01:24:05;100194.19;;;6.83;100.00
60015;BME280;45867;52.480;6.056;2023-11-21T01:26:32;100234.88;;;7.07;100.00
60015;BME280;45867;52.480;6.056;2023-11-21T01:28:58;100229.31;;;7.09;100.00
60015;BME280;45867;52.480;6.056;2023-11-21T01:31:25;100217.94;;;6.98;100.00
60015;BME280;45867;52.480;6.056;2023-11-21T01:33:52;100222.72;;;7.01;100.00
60015;BME280;45867;52.480;6.056;2023-11-21T01:36:18;100234.34;;;7.10;100.00
60015;BME280;45867;52.480;6.056;2023-11-21T01:38:45;100239.66;;;7.16;100.00
60015;BME280;45867;52.480;6.056;2023-11-21T01:41:14;100232.25;;;7.13;100.00
60015;BME280;45867;52.480;6.056;2023-11-21T01:43:41;100243.59;;;7.18;100.00
60015;BME280;45867;52.480;6.056;2023-11-21T01:46:08;100241.22;;;7.17;100.00
60015;BME280;45867;52.480;6.056;2023-11-21T01:48:35;100241.50;;;7.20;100.00
60015;BME280;45867;52.480;6.056;2023-11-21T01:51:02;100244.38;;;7.14;100.00
60015;BME280;45867;52.480;6.056;2023-11-21T01:53:29;100227.47;;;7.04;100.00
60015;BME280;45867;52.480;6.056;2023-11-21T01:55:58;100229.06;;;7.05;100.00
60015;BME280;45867;52.480;6.056;2023-11-21T01:58:27;100231.97;;;7.04;100.00
60015;BME280;45867;52.480;6.056;2023-11-21T02:00:54;100249.41;;;7.15;100.00
60015;BME280;45867;52.480;6.056;2023-11-21T02:03:21;100232.47;;;7.06;100.00
60015;BME280;45867;52.480;6.056;2023-11-21T02:05:48;100255.72;;;7.19;100.00
60015;BME280;45867;52.480;6.056;2023-11-21T02:08:15;100263.09;;;7.22;100.00
60015;BME280;45867;52.480;6.056;2023-11-21T02:10:44;100254.16;;;7.18;100.00
60015;BME280;45867;52.480;6.056;2023-11-21T02:13:10;100252.84;;;7.21;100.00
60015;BME280;45867;52.480;6.056;2023-11-21T02:15:38;100246.75;;;7.15;100.00
60015;BME280;45867;52.480;6.056;2023-11-21T02:18:04;100241.97;;;7.07;100.00
60015;BME280;45867;52.480;6.056;2023-11-21T02:20:32;100246.19;;;7.08;100.00
60015;BME280;45867;52.480;6.056;2023-11-21T02:22:58;100275.50;;;7.22;100.00
60015;BME280;45867;52.480;6.056;2023-11-21T02:25:29;100277.91;;;7.28;100.00
60015;BME280;45867;52.480;6.056;2023-11-21T02:27:57;100278.41;;;7.25;100.00
60015;BME280;45867;52.480;6.056;2023-11-21T02:30:24;100278.44;;;7.30;100.00
60015;BME280;45867;52.480;6.056;2023-11-21T02:32:51;100264.41;;;7.20;100.00
60015;BME280;45867;52.480;6.056;2023-11-21T02:35:19;100282.38;;;7.28;100.00
60015;BME280;45867;52.480;6.056;2023-11-21T02:37:49;100271.31;;;7.31;100.00
60015;BME280;45867;52.480;6.056;2023-11-21T02:40:15;100282.41;;;7.33;100.00
60015;BME280;45867;52.480;6.056;2023-11-21T02:42:53;100285.34;;;7.37;100.00
60015;BME280;45867;52.480;6.056;2023-11-21T02:45:20;100294.81;;;7.38;100.00
60015;BME280;45867;52.480;6.056;2023-11-21T02:47:48;100294.28;;;7.41;100.00
60015;BME280;45867;52.480;6.056;2023-11-21T02:50:15;100277.91;;;7.28;100.00
60015;BME280;45867;52.480;6.056;2023-11-21T02:52:44;100285.31;;;7.31;100.00
60015;BME280;45867;52.480;6.056;2023-11-21T02:55:10;100291.44;;;7.52;100.00
60015;BME280;45867;52.480;6.056;2023-11-21T02:57:39;100279.25;;;7.36;100.00
60015;BME280;45867;52.480;6.056;2023-11-21T03:00:06;100278.44;;;7.36;100.00
60015;BME280;45867;52.480;6.056;2023-11-21T03:02:38;100259.47;;;7.28;100.00
60015;BME280;45867;52.480;6.056;2023-11-21T03:05:06;100296.44;;;7.49;100.00
60015;BME280;45867;52.480;6.056;2023-11-21T03:07:33;100278.72;;;7.39;100.00
60015;BME280;45867;52.480;6.056;2023-11-21T03:09:59;100274.78;;;7.37;100.00
60015;BME280;45867;52.480;6.056;2023-11-21T03:12:26;100290.63;;;7.47;100.00
60015;BME280;45867;52.480;6.056;2023-11-21T03:14:52;100287.97;;;7.47;100.00
60015;BME280;45867;52.480;6.056;2023-11-21T03:17:19;100304.63;;;7.57;100.00
60015;BME280;45867;52.480;6.056;2023-11-21T03:19:45;100307.28;;;7.57;100.00
60015;BME280;45867;52.480;6.056;2023-11-21T03:22:12;100283.22;;;7.44;100.00
60015;BME280;45867;52.480;6.056;2023-11-21T03:24:38;100301.72;;;7.54;100.00
60015;BME280;45867;52.480;6.056;2023-11-21T03:27:05;100303.31;;;7.55;100.00
60015;BME280;45867;52.480;6.056;2023-11-21T03:29:33;100300.41;;;7.51;100.00
60015;BME280;45867;52.480;6.056;2023-11-21T03:32:03;100310.69;;;7.53;100.00
60015;BME280;45867;52.480;6.056;2023-11-21T03:34:30;100317.03;;;7.57;100.00
60015;BME280;45867;52.480;6.056;2023-11-21T03:36:57;100318.38;;;7.65;100.00
60015;BME280;45867;52.480;6.056;2023-11-21T03:39:26;100310.19;;;7.56;100.00
60015;BME280;45867;52.480;6.056;2023-11-21T03:41:53;100325.22;;;7.61;100.00
60015;BME280;45867;52.480;6.056;2023-11-21T03:44:23;100303.00;;;7.46;100.00
60015;BME280;45867;52.480;6.056;2023-11-21T03:46:49;100304.31;;;7.44;100.00
60015;BME280;45867;52.480;6.056;2023-11-21T03:49:19;100330.50;;;7.66;100.00
60015;BME280;45867;52.480;6.056;2023-11-21T03:51:45;100309.09;;;7.52;100.00
60015;BME280;45867;52.480;6.056;2023-11-21T03:54:12;100314.94;;;7.59;100.00
60015;BME280;45867;52.480;6.056;2023-11-21T03:56:42;100333.72;;;7.73;100.00
60015;BME280;45867;52.480;6.056;2023-11-21T03:59:08;100317.81;;;7.57;100.00
60015;BME280;45867;52.480;6.056;2023-11-21T04:01:35;100337.41;;;7.77;100.00
60015;BME280;45867;52.480;6.056;2023-11-21T04:04:01;100334.22;;;7.65;100.00
60015;BME280;45867;52.480;6.056;2023-11-21T04:06:28;100334.50;;;7.73;100.00
60015;BME280;45867;52.480;6.056;2023-11-21T04:08:55;100345.28;;;7.72;100.00
60015;BME280;45867;52.480;6.056;2023-11-21T04:11:21;100344.00;;;7.69;100.00
60015;BME280;45867;52.480;6.056;2023-11-21T04:13:48;100347.13;;;7.71;100.00
60015;BME280;45867;52.480;6.056;2023-11-21T04:16:14;100347.13;;;7.66;100.00
60015;BME280;45867;52.480;6.056;2023-11-21T04:18:41;100355.59;;;7.73;100.00
60015;BME280;45867;52.480;6.056;2023-11-21T04:21:08;100336.56;;;7.66;100.00
60015;BME280;45867;52.480;6.056;2023-11-21T04:23:35;100361.13;;;7.77;100.00
60015;BME280;45867;52.480;6.056;2023-11-21T04:26:02;100361.41;;;7.75;100.00
60015;BME280;45867;52.480;6.056;2023-11-21T04:28:28;100363.25;;;7.75;100.00
60015;BME280;45867;52.480;6.056;2023-11-21T04:30:55;100349.47;;;7.57;100.00
60015;BME280;45867;52.480;6.056;2023-11-21T04:33:22;100352.16;;;7.68;100.00
60015;BME280;45867;52.480;6.056;2023-11-21T04:35:49;100361.13;;;7.72;100.00
60015;BME280;45867;52.480;6.056;2023-11-21T04:38:21;100354.50;;;7.59;100.00
60015;BME280;45867;52.480;6.056;2023-11-21T04:40:50;100358.69;;;7.55;100.00
60015;BME280;45867;52.480;6.056;2023-11-21T04:43:19;100375.34;;;7.66;100.00
60015;BME280;45867;52.480;6.056;2023-11-21T04:45:49;100375.88;;;7.68;100.00
60015;BME280;45867;52.480;6.056;2023-11-21T04:48:15;100367.72;;;7.69;100.00
60015;BME280;45867;52.480;6.056;2023-11-21T04:50:42;100354.72;;;7.57;100.00
60015;BME280;45867;52.480;6.056;2023-11-21T04:53:08;100360.00;;;7.57;100.00
60015;BME280;45867;52.480;6.056;2023-11-21T04:55:35;100360.06;;;7.68;100.00
60015;BME280;45867;52.480;6.056;2023-11-21T04:58:01;100359.75;;;7.59;100.00
60015;BME280;45867;52.480;6.056;2023-11-21T05:00:28;100371.16;;;7.70;100.00
60015;BME280;45867;52.480;6.056;2023-11-21T05:02:54;100369.00;;;7.62;100.00
60015;BME280;45867;52.480;6.056;2023-11-21T05:05:21;100380.59;;;7.66;100.00
60015;BME280;45867;52.480;6.056;2023-11-21T05:07:51;100395.16;;;7.73;100.00
60015;BME280;45867;52.480;6.056;2023-11-21T05:10:20;100386.94;;;7.65;100.00
60015;BME280;45867;52.480;6.056;2023-11-21T05:12:49;100382.97;;;7.62;100.00
60015;BME280;45867;52.480;6.056;2023-11-21T05:15:20;100403.34;;;7.77;100.00
60015;BME280;45867;52.480;6.056;2023-11-21T05:17:49;100401.50;;;7.77;100.00
60015;BME280;45867;52.480;6.056;2023-11-21T05:20:19;100407.31;;;7.79;100.00
60015;BME280;45867;52.480;6.056;2023-11-21T05:22:49;100386.44;;;7.68;100.00
60015;BME280;45867;52.480;6.056;2023-11-21T05:25:16;100409.94;;;7.79;100.00
60015;BME280;45867;52.480;6.056;2023-11-21T05:27:47;100415.22;;;7.79;100.00
60015;BME280;45867;52.480;6.056;2023-11-21T05:30:16;100390.31;;;7.55;100.00
60015;BME280;45867;52.480;6.056;2023-11-21T05:32:46;100395.13;;;7.68;100.00
60015;BME280;45867;52.480;6.056;2023-11-21T05:35:15;100400.19;;;7.75;100.00
60015;BME280;45867;52.480;6.056;2023-11-21T05:37:44;100380.59;;;7.66;100.00
60015;BME280;45867;52.480;6.056;2023-11-21T05:40:11;100387.47;;;7.62;100.00
60015;BME280;45867;52.480;6.056;2023-11-21T05:42:39;100414.72;;;7.77;100.00
60015;BME280;45867;52.480;6.056;2023-11-21T05:45:06;100373.47;;;7.66;100.00
60015;BME280;45867;52.480;6.056;2023-11-21T05:47:33;100404.38;;;7.71;100.00
60015;BME280;45867;52.480;6.056;2023-11-21T05:50:07;100395.44;;;7.77;100.00
60015;BME280;45867;52.480;6.056;2023-11-21T05:52:43;100424.50;;;7.87;100.00
60015;BME280;45867;52.480;6.056;2023-11-21T05:55:10;100436.34;;;7.85;100.00
60015;BME280;45867;52.480;6.056;2023-11-21T05:57:38;100440.28;;;7.82;100.00
60015;BME280;45867;52.480;6.056;2023-11-21T06:00:10;100438.97;;;7.79;100.00
60015;BME280;45867;52.480;6.056;2023-11-21T06:02:52;100408.25;;;7.58;100.00
60015;BME280;45867;52.480;6.056;2023-11-21T06:05:23;100443.44;;;7.79;100.00
60015;BME280;45867;52.480;6.056;2023-11-21T06:07:54;100458.78;;;7.87;100.00
60015;BME280;45867;52.480;6.056;2023-11-21T06:10:22;100458.75;;;7.82;100.00
60015;BME280;45867;52.480;6.056;2023-11-21T06:12:49;100469.63;;;7.86;100.00
60015;BME280;45867;52.480;6.056;2023-11-21T06:15:19;100452.72;;;7.87;100.00
60015;BME280;45867;52.480;6.056;2023-11-21T06:17:46;100447.41;;;7.82;100.00
60015;BME280;45867;52.480;6.056;2023-11-21T06:20:15;100451.38;;;7.84;100.00
60015;BME280;45867;52.480;6.056;2023-11-21T06:22:42;100462.22;;;7.88;100.00
60015;BME280;45867;52.480;6.056;2023-11-21T06:25:15;100448.97;;;7.72;100.00
60015;BME280;45867;52.480;6.056;2023-11-21T06:27:46;100466.97;;;7.86;100.00
60015;BME280;45867;52.480;6.056;2023-11-21T06:30:16;100482.56;;;7.92;100.00
60015;BME280;45867;52.480;6.056;2023-11-21T06:32:50;100475.94;;;7.90;100.00
60015;BME280;45867;52.480;6.056;2023-11-21T06:35:20;100450.81;;;7.77;100.00
60015;BME280;45867;52.480;6.056;2023-11-21T06:37:50;100480.97;;;7.96;100.00
60015;BME280;45867;52.480;6.056;2023-11-21T06:40:22;100470.16;;;7.93;100.00
60015;BME280;45867;52.480;6.056;2023-11-21T06:42:51;100473.34;;;7.95;100.00
60015;BME280;45867;52.480;6.056;2023-11-21T06:45:20;100463.78;;;7.84;100.00
60015;BME280;45867;52.480;6.056;2023-11-21T06:47:49;100477.00;;;7.89;100.00
60015;BME280;45867;52.480;6.056;2023-11-21T06:50:23;100490.75;;;7.96;100.00
60015;BME280;45867;52.480;6.056;2023-11-21T06:52:52;100496.53;;;7.93;100.00
60015;BME280;45867;52.480;6.056;2023-11-21T06:55:21;100492.59;;;7.95;100.00
60015;BME280;45867;52.480;6.056;2023-11-21T06:57:56;100484.09;;;7.88;100.00
60015;BME280;45867;52.480;6.056;2023-11-21T07:00:23;100496.03;;;7.96;100.00
60015;BME280;45867;52.480;6.056;2023-11-21T07:02:51;100484.91;;;7.84;100.00
60015;BME280;45867;52.480;6.056;2023-11-21T07:05:21;100494.69;;;7.93;100.00
60015;BME280;45867;52.480;6.056;2023-11-21T07:07:58;100497.34;;;7.93;100.00
60015;BME280;45867;52.480;6.056;2023-11-21T07:10:25;100501.31;;;7.96;100.00
60015;BME280;45867;52.480;6.056;2023-11-21T07:12:51;100520.38;;;8.08;100.00
60015;BME280;45867;52.480;6.056;2023-11-21T07:15:25;100516.63;;;7.99;100.00
60015;BME280;45867;52.480;6.056;2023-11-21T07:17:51;100535.16;;;8.09;100.00
60015;BME280;45867;52.480;6.056;2023-11-21T07:20:25;100551.00;;;8.09;100.00
60015;BME280;45867;52.480;6.056;2023-11-21T07:22:51;100560.78;;;8.14;100.00
60015;BME280;45867;52.480;6.056;2023-11-21T07:25:21;100543.59;;;8.06;100.00
60015;BME280;45867;52.480;6.056;2023-11-21T07:27:50;100549.41;;;8.08;100.00
60015;BME280;45867;52.480;6.056;2023-11-21T07:30:20;100556.81;;;8.11;100.00
60015;BME280;45867;52.480;6.056;2023-11-21T07:32:46;100561.03;;;8.12;100.00
60015;BME280;45867;52.480;6.056;2023-11-21T07:35:22;100570.81;;;8.17;100.00
60015;BME280;45867;52.480;6.056;2023-11-21T07:38:08;100570.34;;;8.25;100.00
60015;BME280;45867;52.480;6.056;2023-11-21T07:40:38;100570.06;;;8.21;100.00
60015;BME280;45867;52.480;6.056;2023-11-21T07:43:05;100581.44;;;8.27;100.00
60015;BME280;45867;52.480;6.056;2023-11-21T07:45:36;100594.66;;;8.27;100.00
60015;BME280;45867;52.480;6.056;2023-11-21T07:48:05;100568.97;;;8.17;100.00
60015;BME280;45867;52.480;6.056;2023-11-21T07:50:34;100611.63;;;8.41;100.00
60015;BME280;45867;52.480;6.056;2023-11-21T07:53:01;100571.25;;;8.41;100.00
60015;BME280;45867;52.480;6.056;2023-11-21T07:55:28;100574.13;;;8.39;100.00
60015;BME280;45867;52.480;6.056;2023-11-21T07:58:04;100591.84;;;8.44;100.00
60015;BME280;45867;52.480;6.056;2023-11-21T08:00:33;100582.22;;;8.28;100.00
60015;BME280;45867;52.480;6.056;2023-11-21T08:03:00;100593.06;;;8.31;100.00
60015;BME280;45867;52.480;6.056;2023-11-21T08:05:29;100624.91;;;8.52;100.00
60015;BME280;45867;52.480;6.056;2023-11-21T08:08:05;100615.50;;;8.29;100.00
60015;BME280;45867;52.480;6.056;2023-11-21T08:10:31;100622.44;;;8.40;100.00
60015;BME280;45867;52.480;6.056;2023-11-21T08:12:58;100635.41;;;8.41;100.00
60015;BME280;45867;52.480;6.056;2023-11-21T08:15:24;100643.34;;;8.47;100.00
60015;BME280;45867;52.480;6.056;2023-11-21T08:17:51;100657.09;;;8.49;100.00
60015;BME280;45867;52.480;6.056;2023-11-21T08:20:23;100637.16;;;8.31;100.00
60015;BME280;45867;52.480;6.056;2023-11-21T08:22:53;100668.44;;;8.44;100.00
60015;BME280;45867;52.480;6.056;2023-11-21T08:25:20;100671.84;;;8.44;100.00
60015;BME280;45867;52.480;6.056;2023-11-21T08:27:53;100683.00;;;8.52;100.00
60015;BME280;45867;52.480;6.056;2023-11-21T08:30:19;100676.41;;;8.54;100.00
60015;BME280;45867;52.480;6.056;2023-11-21T08:32:46;100685.72;;;8.67;100.00
60015;BME280;45867;52.480;6.056;2023-11-21T08:35:20;100689.72;;;8.75;100.00
60015;BME280;45867;52.480;6.056;2023-11-21T08:37:48;100669.13;;;8.77;100.00
60015;BME280;45867;52.480;6.056;2023-11-21T08:40:20;100686.38;;;9.00;100.00
60015;BME280;45867;52.480;6.056;2023-11-21T08:42:47;100689.56;;;9.02;100.00
60015;BME280;45867;52.480;6.056;2023-11-21T08:45:15;100689.56;;;9.02;100.00
60015;BME280;45867;52.480;6.056;2023-11-21T08:47:41;100699.13;;;9.13;100.00
60015;BME280;45867;52.480;6.056;2023-11-21T08:50:11;100682.94;;;8.94;100.00
60015;BME280;45867;52.480;6.056;2023-11-21T08:52:38;100698.34;;;9.13;100.00
60015;BME280;45867;52.480;6.056;2023-11-21T08:55:05;100697.03;;;9.15;100.00
60015;BME280;45867;52.480;6.056;2023-11-21T08:57:35;100707.59;;;9.15;100.00
60015;BME280;45867;52.480;6.056;2023-11-21T09:00:12;100686.13;;;9.01;100.00
60015;BME280;45867;52.480;6.056;2023-11-21T09:02:42;100704.09;;;8.99;100.00
60015;BME280;45867;52.480;6.056;2023-11-21T09:05:12;100712.00;;;8.94;100.00
60015;BME280;45867;52.480;6.056;2023-11-21T09:07:42;100757.03;;;9.15;100.00
60015;BME280;45867;52.480;6.056;2023-11-21T09:10:09;100767.28;;;9.01;100.00
60015;BME280;45867;52.480;6.056;2023-11-21T09:12:37;100782.94;;;9.13;100.00
60015;BME280;45867;52.480;6.056;2023-11-21T09:15:05;100768.00;;;8.91;100.00
60015;BME280;45867;52.480;6.056;2023-11-21T09:17:37;100797.66;;;8.98;100.00
60015;BME280;45867;52.480;6.056;2023-11-21T09:20:04;100777.25;;;8.88;100.00
60015;BME280;45867;52.480;6.056;2023-11-21T09:22:32;100810.34;;;8.96;100.00
60015;BME280;45867;52.480;6.056;2023-11-21T09:24:58;100805.81;;;8.92;100.00
60015;BME280;45867;52.480;6.056;2023-11-21T09:27:25;100811.13;;;8.97;100.00
60015;BME280;45867;52.480;6.056;2023-11-21T09:29:53;100811.28;;;8.80;100.00
60015;BME280;45867;52.480;6.056;2023-11-21T09:32:20;100838.06;;;8.94;100.00
60015;BME280;45867;52.480;6.056;2023-11-21T09:34:48;100840.75;;;8.99;100.00
60015;BME280;45867;52.480;6.056;2023-11-21T09:37:15;100844.69;;;8.96;100.00
60015;BME280;45867;52.480;6.056;2023-11-21T09:39:53;100846.47;;;8.85;100.00
60015;BME280;45867;52.480;6.056;2023-11-21T09:42:24;100826.84;;;8.76;100.00
60015;BME280;45867;52.480;6.056;2023-11-21T09:45:22;100836.19;;;8.89;100.00
60015;BME280;45867;52.480;6.056;2023-11-21T09:47:52;100853.88;;;8.88;100.00
60015;BME280;45867;52.480;6.056;2023-11-21T09:50:19;100857.06;;;8.91;100.00
60015;BME280;45867;52.480;6.056;2023-11-21T09:53:13;100889.94;;;9.05;100.00
60015;BME280;45867;52.480;6.056;2023-11-21T09:55:49;100902.09;;;9.01;100.00
60015;BME280;45867;52.480;6.056;2023-11-21T09:58:20;100896.72;;;8.91;100.00
60015;BME280;45867;52.480;6.056;2023-11-21T10:01:00;100896.69;;;8.85;100.00
60015;BME280;45867;52.480;6.056;2023-11-21T10:03:27;100914.72;;;8.94;100.00
60015;BME280;45867;52.480;6.056;2023-11-21T10:06:02;100914.66;;;8.88;100.00
60015;BME280;45867;52.480;6.056;2023-11-21T10:08:40;100940.34;;;8.93;100.00
60015;BME280;45867;52.480;6.056;2023-11-21T10:11:23;100943.22;;;8.92;100.00
60015;BME280;45867;52.480;6.056;2023-11-21T10:13:54;100955.19;;;8.99;100.00
60015;BME280;45867;52.480;6.056;2023-11-21T10:16:25;100945.88;;;8.92;100.00
60015;BME280;45867;52.480;6.056;2023-11-21T10:18:55;100971.88;;;9.05;100.00
60015;BME280;45867;52.480;6.056;2023-11-21T10:21:39;100969.50;;;9.03;100.00
60015;BME280;45867;52.480;6.056;2023-11-21T10:24:06;100975.31;;;9.05;100.00
60015;BME280;45867;52.480;6.056;2023-11-21T10:26:39;100975.00;;;8.97;100.00
60015;BME280;45867;52.480;6.056;2023-11-21T10:29:21;101001.63;;;9.17;100.00
60015;BME280;45867;52.480;6.056;2023-11-21T10:31:49;101006.81;;;9.07;100.00
60015;BME280;45867;52.480;6.056;2023-11-21T10:34:20;101036.50;;;9.14;100.00
60015;BME280;45867;52.480;6.056;2023-11-21T10:36:50;101037.47;;;9.08;100.00
60015;BME280;45867;52.480;6.056;2023-11-21T10:39:20;101044.44;;;9.14;100.00
60015;BME280;45867;52.480;6.056;2023-11-21T10:41:49;101037.91;;;9.00;100.00
60015;BME280;45867;52.480;6.056;2023-11-21T10:44:20;101066.03;;;9.11;100.00
60015;BME280;45867;52.480;6.056;2023-11-21T10:46:51;101078.78;;;9.14;100.00
60015;BME280;45867;52.480;6.056;2023-11-21T10:49:19;101077.63;;;9.05;100.00
60015;BME280;45867;52.480;6.056;2023-11-21T10:51:52;101090.72;;;9.17;100.00
60015;BME280;45867;52.480;6.056;2023-11-21T10:54:25;101079.63;;;8.93;100.00
60015;BME280;45867;52.480;6.056;2023-11-21T10:57:00;101105.47;;;9.13;100.00
60015;BME280;45867;52.480;6.056;2023-11-21T10:59:50;101087.25;;;8.89;100.00
60015;BME280;45867;52.480;6.056;2023-11-21T11:02:26;101125.63;;;9.19;100.00
60015;BME280;45867;52.480;6.056;2023-11-21T11:04:54;101146.66;;;9.36;100.00
60015;BME280;45867;52.480;6.056;2023-11-21T11:07:27;101154.38;;;9.37;100.00
60015;BME280;45867;52.480;6.056;2023-11-21T11:09:54;101150.94;;;9.37;100.00
60015;BME280;45867;52.480;6.056;2023-11-21T11:12:24;101150.53;;;9.23;100.00
60015;BME280;45867;52.480;6.056;2023-11-21T11:14:58;101175.91;;;9.24;100.00
60015;BME280;45867;52.480;6.056;2023-11-21T11:17:27;101146.84;;;9.02;100.00
60015;BME280;45867;52.480;6.056;2023-11-21T11:19:54;101191.34;;;9.32;100.00
60015;BME280;45867;52.480;6.056;2023-11-21T11:22:50;101204.84;;;9.36;100.00
60015;BME280;45867;52.480;6.056;2023-11-21T11:28:14;101212.75;;;9.30;100.00
60015;BME280;45867;52.480;6.056;2023-11-21T11:33:41;101245.09;;;9.16;100.00
60015;BME280;45867;52.480;6.056;2023-11-21T11:36:29;101265.88;;;9.07;100.00
60015;BME280;45867;52.480;6.056;2023-11-21T11:39:00;101260.66;;;8.90;100.00
60015;BME280;45867;52.480;6.056;2023-11-21T11:41:32;101253.13;;;8.82;100.00
60015;BME280;45867;52.480;6.056;2023-11-21T11:44:00;101248.00;;;8.75;100.00
60015;BME280;45867;52.480;6.056;2023-11-21T11:46:45;101282.59;;;8.91;100.00
60015;BME280;45867;52.480;6.056;2023-11-21T11:49:32;101288.09;;;8.89;100.00
60015;BME280;45867;52.480;6.056;2023-11-21T11:55:03;101304.44;;;8.86;100.00
60015;BME280;45867;52.480;6.056;2023-11-21T11:57:34;101330.56;;;8.82;100.00
60015;BME280;45867;52.480;6.056;2023-11-21T12:00:20;101350.66;;;8.83;100.00
60015;BME280;45867;52.480;6.056;2023-11-21T12:02:57;101370.28;;;8.71;100.00
60015;BME280;45867;52.480;6.056;2023-11-21T12:05:26;101377.47;;;8.75;100.00
60015;BME280;45867;52.480;6.056;2023-11-21T12:07:54;101385.88;;;8.72;100.00
60015;BME280;45867;52.480;6.056;2023-11-21T12:10:23;101396.47;;;8.72;100.00
60015;BME280;45867;52.480;6.056;2023-11-21T12:13:11;101385.59;;;8.69;100.00
60015;BME280;45867;52.480;6.056;2023-11-21T12:15:38;101416.59;;;8.90;100.00
60015;BME280;45867;52.480;6.056;2023-11-21T12:18:09;101436.06;;;9.01;100.00
60015;BME280;45867;52.480;6.056;2023-11-21T12:20:35;101424.13;;;8.81;100.00
60015;BME280;45867;52.480;6.056;2023-11-21T12:23:08;101433.63;;;8.82;100.00
60015;BME280;45867;52.480;6.056;2023-11-21T12:25:34;101428.97;;;8.73;100.00
60015;BME280;45867;52.480;6.056;2023-11-21T12:28:01;101462.16;;;8.97;100.00
60015;BME280;45867;52.480;6.056;2023-11-21T12:30:30;101482.66;;;8.90;100.00
60015;BME280;45867;52.480;6.056;2023-11-21T12:33:00;101487.06;;;8.84;100.00
60015;BME280;45867;52.480;6.056;2023-11-21T12:35:34;101521.81;;;8.93;100.00
60015;BME280;45867;52.480;6.056;2023-11-21T12:38:02;101533.75;;;8.79;100.00
60015;BME280;45867;52.480;6.056;2023-11-21T12:40:30;101553.72;;;8.75;100.00
60015;BME280;45867;52.480;6.056;2023-11-21T12:42:58;101560.88;;;8.74;100.00
60015;BME280;45867;52.480;6.056;2023-11-21T12:45:42;101607.97;;;8.77;100.00
60015;BME280;45867;52.480;6.056;2023-11-21T12:48:09;101612.66;;;8.75;100.00
60015;BME280;45867;52.480;6.056;2023-11-21T12:50:42;101620.97;;;8.67;100.00
60015;BME280;45867;52.480;6.056;2023-11-21T12:53:11;101595.06;;;8.40;100.00
60015;BME280;45867;52.480;6.056;2023-11-21T12:55:39;101658.66;;;8.62;100.00
60015;BME280;45867;52.480;6.056;2023-11-21T12:58:07;101665.75;;;8.62;100.00
60015;BME280;45867;52.480;6.056;2023-11-21T13:00:39;101652.72;;;8.43;100.00
60015;BME280;45867;52.480;6.056;2023-11-21T13:03:11;101696.69;;;8.50;100.00
60015;BME280;45867;52.480;6.056;2023-11-21T13:05:40;101722.31;;;8.49;100.00
60015;BME280;45867;52.480;6.056;2023-11-21T13:08:11;101744.56;;;8.53;100.00
60015;BME280;45867;52.480;6.056;2023-11-21T13:10:40;101755.72;;;8.43;100.00